Home   Weather   India   Bhinga   Past weeks
Flag for India

Past Weather in Bhinga, Uttar Pradesh, India — Yesterday and Last 2 Weeks

Currently: 57 °F. Fog. (Weather station: Lucknow / Amausi, India). See more current weather

Past Weather in Bhinga — Graph

°F

Bhinga Temperature Yesterday

Maximum temperature yesterday: 75 °F (at 1:30 pm)
Minimum temperature yesterday: 54 °F (at 7:30 am)
Average temperature yesterday: 63 °F

High & Low Weather Summary for the Past Weeks

 TemperatureHumidityPressure
High81 °F (Nov 21, 1:00 pm)100% (Nov 27, 1:30 am)30.09 "Hg (Nov 27, 1:30 am)
Low54 °F (Nov 24, 3:30 am)37% (Nov 22, 2:30 pm)29.80 "Hg (Nov 27, 2:00 pm)
Average66 °F79%29.94 "Hg
* Reported Nov 21 1:30 am — Dec 6 1:30 am, Bhinga. Weather by CustomWeather, © 2022

Note: Actual official high and low records may vary slightly from our data, if they occured in-between our weather recording intervals... More about our weather records

Bhinga Weather History for the Previous 24 Hours

Scroll right to see more
 ConditionsComfort  
Time TempWeatherWind HumidityBarometerVisibility
1:30 am
Tue, Dec 6
57 °FFog.No wind94%29.98 "Hg1 mi
1:00 am59 °FFog.No wind94%29.98 "Hg1 mi
12:30 am59 °FFog.No wind94%29.98 "Hg1 mi
12:00 am59 °FFog.No wind94%29.98 "Hg1 mi
11:30 pm
Mon, Dec 5
59 °FFog.No wind94%29.98 "Hg1 mi
11:00 pm59 °FFog.No wind94%30.01 "Hg1 mi
10:30 pm61 °FFog.No wind94%30.01 "Hg1 mi
10:00 pm61 °FFog.No wind94%30.01 "Hg1 mi
9:30 pm61 °FFog.No wind94%30.01 "Hg1 mi
9:00 pm61 °FFog.No wind94%30.01 "Hg1 mi
8:30 pm63 °FFog.No wind88%30.01 "Hg1 mi
8:00 pm63 °FFog.No wind88%30.01 "Hg1 mi
7:30 pm64 °FFog.No wind88%30.01 "Hg1 mi
7:00 pm64 °FFog.No wind88%30.01 "Hg1 mi
6:30 pm64 °FFog.No wind88%29.98 "Hg1 mi
5:30 pm68 °FFog.No wind78%29.98 "Hg1 mi
5:00 pm70 °FHaze.No wind73%29.98 "Hg1 mi
4:30 pm72 °FHaze.No wind73%29.98 "Hg1 mi
4:00 pm73 °FHaze.No wind69%29.98 "Hg1 mi
3:30 pm75 °FHaze.1 mph65%29.98 "Hg1 mi
3:00 pm75 °FHaze.2 mph61%29.98 "Hg1 mi
2:30 pm75 °FHaze.2 mph65%29.98 "Hg1 mi
2:00 pm75 °FHaze.2 mph65%29.98 "Hg1 mi
1:30 pm75 °FHaze.3 mph61%30.01 "Hg1 mi
1:00 pm73 °FHaze.No wind69%30.04 "Hg1 mi
12:30 pm73 °FHaze.No wind69%30.04 "Hg1 mi
10:30 am66 °FFog.No wind88%30.09 "Hg1 mi
10:00 am64 °FFog.2 mph88%30.09 "Hg1 mi
9:30 am63 °FFog.No wind88%30.09 "Hg1 mi
9:00 am61 °FFog.No wind88%30.09 "Hg1 mi
8:30 am59 °FFog.No wind88%30.07 "Hg1 mi
8:00 am55 °FFog.No wind94%30.07 "Hg0 mi
7:30 am54 °FFog.No wind100%30.04 "Hg0 mi
6:30 am55 °FFog.No wind100%30.01 "Hg0 mi
5:00 am55 °FFog.No wind94%30.01 "Hg1 mi
4:30 am55 °FFog.No wind94%29.98 "Hg1 mi
4:00 am55 °FFog.No wind94%29.98 "Hg1 mi
3:30 am55 °FFog.No wind94%29.98 "Hg1 mi
3:00 am55 °FFog.No wind94%29.98 "Hg1 mi
Weather by CustomWeather, © 2022

See weather overview